Time;durP1;ratioP1;P1;durP2;ratioP2;P2;SDS_P1;SDS_P2;PMS_P1;PMS_P2;Temp;Humidity;BMP_temperature;BMP_pressure;BME280_temperature;BME280_humidity;BME280_pressure;Samples;Min_cycle;Max_cycle;Signal;HPM_P1;HPM_P2
2023/08/19 00:01:18;;;;;;;22.23;17.70;;;21.20;99.90;;;;;;5053230;28;20206;-67
2023/08/19 00:03:44;;;;;;;20.85;17.92;;;21.20;99.90;;;;;;5035047;28;20514;-66
2023/08/19 00:06:30;;;;;;;21.45;18.40;;;21.10;99.90;;;;;;5053402;28;20041;-66
2023/08/19 00:08:55;;;;;;;20.08;17.77;;;21.10;99.90;;;;;;5035176;28;20130;-67
2023/08/19 00:11:21;;;;;;;19.90;16.67;;;21.10;99.90;;;;;;5053097;28;20061;-67
2023/08/19 00:13:47;;;;;;;19.38;16.63;;;21.10;99.90;;;;;;5051839;28;20045;-67
2023/08/19 00:16:12;;;;;;;19.40;16.75;;;21.10;99.90;;;;;;5052886;28;20039;-66
2023/08/19 00:18:38;;;;;;;22.08;17.70;;;21.00;99.90;;;;;;5053013;28;20033;-67
2023/08/19 00:21:04;;;;;;;23.38;17.38;;;21.00;99.90;;;;;;5053021;28;20394;-67
2023/08/19 00:23:29;;;;;;;20.38;16.50;;;21.00;99.90;;;;;;5052614;28;20041;-67
2023/08/19 00:25:55;;;;;;;23.13;17.95;;;20.90;99.90;;;;;;5052725;28;20047;-66
2023/08/19 00:28:20;;;;;;;24.52;19.77;;;21.00;99.90;;;;;;5052595;28;20090;-66
2023/08/19 00:30:46;;;;;;;25.10;20.25;;;20.90;99.90;;;;;;5052511;28;20033;-66
2023/08/19 00:33:12;;;;;;;23.25;18.83;;;20.90;99.90;;;;;;5034884;28;20040;-67
2023/08/19 00:35:39;;;;;;;19.63;17.52;;;21.00;99.90;;;;;;5052525;28;20041;-67
2023/08/19 00:38:04;;;;;;;23.23;18.77;;;21.00;99.90;;;;;;5083541;22;20055;-67
2023/08/19 00:40:30;;;;;;;23.83;19.60;;;20.90;99.90;;;;;;5092265;28;20047;-67
2023/08/19 00:42:55;;;;;;;22.75;20.05;;;20.90;99.90;;;;;;5092191;28;20773;-67
2023/08/19 00:45:21;;;;;;;25.38;20.17;;;21.00;99.90;;;;;;5090488;28;20040;-67
2023/08/19 00:47:47;;;;;;;27.20;20.60;;;21.00;99.90;;;;;;5092141;28;20044;-67
2023/08/19 00:50:14;;;;;;;24.23;20.55;;;21.00;99.90;;;;;;5092703;28;20032;-67
2023/08/19 00:52:40;;;;;;;25.70;21.42;;;21.10;99.90;;;;;;5091254;28;20489;-67
2023/08/19 00:55:06;;;;;;;26.92;20.35;;;21.10;99.90;;;;;;5090629;28;20048;-67
2023/08/19 00:57:34;;;;;;;27.52;21.60;;;21.10;99.90;;;;;;5091151;28;20043;-67
2023/08/19 01:00:00;;;;;;;25.52;20.58;;;21.10;99.90;;;;;;5090733;28;20044;-67
2023/08/19 01:02:27;;;;;;;25.27;20.98;;;21.10;99.90;;;;;;5091931;28;20036;-67
2023/08/19 01:04:52;;;;;;;27.48;20.85;;;21.10;99.90;;;;;;5091907;28;20080;-67
2023/08/19 01:07:32;;;;;;;25.60;20.33;;;21.20;99.90;;;;;;5092385;28;20102;-67
2023/08/19 01:10:29;;;;;;;24.58;19.77;;;21.20;99.90;;;;;;5092453;28;20039;-67
2023/08/19 01:13:13;;;;;;;25.48;19.75;;;21.20;99.90;;;;;;5092417;28;20390;-67
2023/08/19 01:15:56;;;;;;;28.02;20.13;;;21.20;99.90;;;;;;5092206;28;20040;-67
2023/08/19 01:18:23;;;;;;;26.23;20.90;;;21.20;99.90;;;;;;5092086;28;20040;-67
2023/08/19 01:20:50;;;;;;;25.50;19.48;;;21.20;99.90;;;;;;5091842;28;20040;-67
2023/08/19 01:23:19;;;;;;;25.95;19.05;;;21.20;99.90;;;;;;5091125;28;20118;-67
2023/08/19 01:25:45;;;;;;;26.10;20.67;;;21.20;99.90;;;;;;5092018;28;20044;-67
2023/08/19 01:28:11;;;;;;;26.00;20.52;;;21.20;99.90;;;;;;5092083;28;20028;-67
2023/08/19 01:30:37;;;;;;;24.85;19.90;;;21.20;99.90;;;;;;5091981;28;20501;-67
2023/08/19 01:33:04;;;;;;;29.70;20.20;;;21.10;99.90;;;;;;5092004;28;20029;-67
2023/08/19 01:35:38;;;;;;;24.85;19.38;;;21.20;99.90;;;;;;5091539;28;20100;-67
2023/08/19 01:38:13;;;;;;;26.17;19.48;;;21.20;99.90;;;;;;5091915;28;20413;-67
2023/08/19 01:40:40;;;;;;;26.15;19.27;;;21.20;99.90;;;;;;5091941;28;20047;-67
2023/08/19 01:43:10;;;;;;;24.27;19.75;;;21.20;99.90;;;;;;5091514;28;20040;-67
2023/08/19 01:45:36;;;;;;;24.92;19.48;;;21.20;99.90;;;;;;5091641;28;20406;-67
2023/08/19 01:48:02;;;;;;;26.20;20.92;;;21.20;99.90;;;;;;5091653;28;20575;-67
2023/08/19 01:50:28;;;;;;;26.85;20.52;;;21.20;99.90;;;;;;5090214;28;20111;-67
2023/08/19 01:52:54;;;;;;;25.00;20.23;;;21.20;99.90;;;;;;5091850;28;20394;-67
2023/08/19 01:55:19;;;;;;;23.90;18.92;;;21.10;99.90;;;;;;5091716;28;20075;-67
2023/08/19 01:57:45;;;;;;;27.05;19.65;;;21.10;99.90;;;;;;5091852;28;20036;-67
2023/08/19 02:00:11;;;;;;;26.05;19.08;;;21.10;99.90;;;;;;5094922;28;20032;-67
2023/08/19 02:02:36;;;;;;;24.02;18.55;;;21.10;99.90;;;;;;5091397;28;20031;-67
2023/08/19 02:05:02;;;;;;;23.65;18.45;;;21.10;99.90;;;;;;5094183;28;20040;-67
2023/08/19 02:07:28;;;;;;;24.70;19.33;;;21.20;99.90;;;;;;5095238;28;20043;-67
2023/08/19 02:09:53;;;;;;;23.10;18.52;;;21.10;99.90;;;;;;5095269;28;20089;-67
2023/08/19 02:12:19;;;;;;;23.55;19.10;;;21.20;99.90;;;;;;5095540;28;20031;-67
2023/08/19 02:14:44;;;;;;;24.45;18.63;;;21.20;99.90;;;;;;5094869;28;20068;-67
2023/08/19 02:17:10;;;;;;;23.55;18.27;;;21.10;99.90;;;;;;5095281;28;20500;-67
2023/08/19 02:19:36;;;;;;;24.25;18.70;;;21.10;99.90;;;;;;5095335;28;20100;-67
2023/08/19 02:22:02;;;;;;;24.30;18.58;;;21.00;99.90;;;;;;5095567;28;20044;-67
2023/08/19 02:24:28;;;;;;;24.70;19.10;;;21.10;99.90;;;;;;5095188;28;20043;-67
2023/08/19 02:26:54;;;;;;;25.25;19.45;;;21.00;99.90;;;;;;5094789;28;20431;-67
2023/08/19 02:29:19;;;;;;;25.50;18.83;;;21.10;99.90;;;;;;5094962;28;20036;-67
2023/08/19 02:31:47;;;;;;;27.38;17.73;;;21.00;99.90;;;;;;5095086;28;20040;-67
2023/08/19 02:34:12;;;;;;;24.60;18.52;;;21.00;99.90;;;;;;5093597;28;20051;-67
2023/08/19 02:36:38;;;;;;;23.42;18.20;;;21.00;99.90;;;;;;5094222;28;20409;-67
2023/08/19 02:39:04;;;;;;;23.42;18.50;;;21.10;99.90;;;;;;5095000;28;20312;-68
2023/08/19 02:41:29;;;;;;;23.38;18.63;;;21.00;99.90;;;;;;5094852;28;20127;-67
2023/08/19 02:43:55;;;;;;;22.73;18.17;;;21.00;99.90;;;;;;5094762;28;20127;-67
2023/08/19 02:46:21;;;;;;;24.88;18.80;;;21.00;99.90;;;;;;5094897;28;20032;-67
2023/08/19 02:48:47;;;;;;;23.02;17.73;;;21.00;99.90;;;;;;5094985;28;20139;-67
2023/08/19 02:51:12;;;;;;;24.52;18.50;;;21.00;99.90;;;;;;5094540;28;20085;-67
2023/08/19 02:53:38;;;;;;;20.92;17.05;;;21.00;99.90;;;;;;5094700;28;20405;-67
2023/08/19 02:56:06;;;;;;;21.33;16.80;;;21.00;99.90;;;;;;5094563;28;20047;-67
2023/08/19 02:58:33;;;;;;;25.63;18.23;;;20.90;99.90;;;;;;5094121;28;20051;-67
2023/08/19 03:00:58;;;;;;;22.85;16.98;;;20.90;99.90;;;;;;5094813;28;20393;-67
2023/08/19 03:03:27;;;;;;;22.48;17.35;;;21.00;99.90;;;;;;5093206;28;20044;-67
2023/08/19 03:05:59;;;;;;;21.20;17.02;;;20.90;99.90;;;;;;5094246;28;20046;-67
2023/08/19 03:08:24;;;;;;;23.60;17.13;;;21.00;99.90;;;;;;5094453;28;20115;-67
2023/08/19 03:10:50;;;;;;;21.55;17.40;;;21.00;99.90;;;;;;5094226;28;20072;-67
2023/08/19 03:13:15;;;;;;;23.70;16.75;;;21.00;99.90;;;;;;5094116;28;20036;-67
2023/08/19 03:15:41;;;;;;;20.95;17.23;;;20.90;99.90;;;;;;5094372;28;20114;-67
2023/08/19 03:18:07;;;;;;;22.58;17.15;;;20.90;99.90;;;;;;5094509;28;20039;-67
2023/08/19 03:20:33;;;;;;;21.30;16.65;;;20.90;99.90;;;;;;5094440;28;20029;-67
2023/08/19 03:22:58;;;;;;;20.90;16.73;;;20.90;99.90;;;;;;5094278;28;20153;-67
2023/08/19 03:25:24;;;;;;;24.05;17.08;;;20.90;99.90;;;;;;5093541;28;20119;-67
2023/08/19 03:27:50;;;;;;;22.05;16.98;;;20.90;99.90;;;;;;5093969;28;20032;-67
2023/08/19 03:30:15;;;;;;;24.27;16.58;;;20.90;99.90;;;;;;5094036;28;20550;-67
2023/08/19 03:32:41;;;;;;;21.25;15.93;;;20.90;99.90;;;;;;5093721;28;20042;-67
2023/08/19 03:35:07;;;;;;;20.90;15.85;;;20.90;99.90;;;;;;5093561;28;20028;-67
2023/08/19 03:37:33;;;;;;;22.17;16.73;;;20.90;99.90;;;;;;5093970;28;20135;-67
2023/08/19 03:39:58;;;;;;;23.10;16.15;;;20.90;99.90;;;;;;5094011;28;20127;-67
2023/08/19 03:42:24;;;;;;;20.10;15.30;;;20.80;99.90;;;;;;5093722;28;20094;-67
2023/08/19 03:44:50;;;;;;;21.80;16.50;;;20.90;99.90;;;;;;5093759;28;20084;-67
2023/08/19 03:47:16;;;;;;;22.00;16.30;;;20.90;99.90;;;;;;5093900;28;20036;-67
2023/08/19 03:49:41;;;;;;;24.13;16.73;;;20.80;99.90;;;;;;5093848;28;20036;-67
2023/08/19 03:52:08;;;;;;;23.77;16.25;;;20.90;99.90;;;;;;5093774;28;20504;-67
2023/08/19 03:54:34;;;;;;;23.60;16.33;;;20.80;99.90;;;;;;5093528;28;20168;-67
2023/08/19 03:57:00;;;;;;;22.83;15.32;;;20.80;99.90;;;;;;5091990;28;20513;-67
2023/08/19 03:59:25;;;;;;;21.67;15.85;;;20.80;99.90;;;;;;5092441;28;20055;-67
2023/08/19 04:01:52;;;;;;;18.13;14.70;;;20.80;99.90;;;;;;5090239;28;20051;-67
2023/08/19 04:04:17;;;;;;;20.15;15.45;;;20.80;99.90;;;;;;5091479;28;20032;-67
2023/08/19 04:06:43;;;;;;;22.55;15.43;;;20.80;99.90;;;;;;5074721;28;20036;-67
2023/08/19 04:09:09;;;;;;;19.15;15.25;;;20.80;99.90;;;;;;5073003;28;20403;-67
2023/08/19 04:11:34;;;;;;;20.83;15.52;;;20.70;99.90;;;;;;5073035;28;20037;-67
2023/08/19 04:14:00;;;;;;;22.35;15.65;;;20.70;99.90;;;;;;5089995;28;20040;-66
2023/08/19 04:16:26;;;;;;;21.40;15.80;;;20.80;99.90;;;;;;5093474;28;20043;-67
2023/08/19 04:18:51;;;;;;;21.13;15.32;;;20.70;99.90;;;;;;5093291;28;20038;-67
2023/08/19 04:21:17;;;;;;;19.45;15.48;;;20.70;99.90;;;;;;5092369;28;20042;-67
2023/08/19 04:23:43;;;;;;;19.90;15.00;;;20.70;99.90;;;;;;5092268;28;20085;-66
2023/08/19 04:26:09;;;;;;;21.20;15.48;;;20.70;99.90;;;;;;5092670;28;20032;-67
2023/08/19 04:28:35;;;;;;;22.27;15.50;;;20.70;99.90;;;;;;5093130;28;20032;-67
2023/08/19 04:31:02;;;;;;;17.75;14.10;;;20.60;99.90;;;;;;5092884;28;20110;-67
2023/08/19 04:33:28;;;;;;;20.63;15.60;;;20.70;99.90;;;;;;5092230;28;20490;-67
2023/08/19 04:35:54;;;;;;;20.63;13.85;;;20.70;99.90;;;;;;5092392;28;20047;-67
2023/08/19 04:38:20;;;;;;;22.27;15.48;;;20.70;99.90;;;;;;5092750;28;20050;-67
2023/08/19 04:40:46;;;;;;;17.60;14.43;;;20.70;99.90;;;;;;5090857;28;20040;-67
2023/08/19 04:43:11;;;;;;;19.73;15.45;;;20.80;99.90;;;;;;5092869;28;20044;-67
2023/08/19 04:45:38;;;;;;;18.38;14.18;;;20.80;99.90;;;;;;5092540;28;20040;-67
2023/08/19 04:48:05;;;;;;;19.75;14.43;;;20.80;99.90;;;;;;5092686;28;20044;-67
2023/08/19 04:50:31;;;;;;;21.45;14.43;;;20.80;99.90;;;;;;5092699;28;20040;-67
2023/08/19 04:52:57;;;;;;;17.50;14.00;;;20.80;99.90;;;;;;5092523;28;20040;-67
2023/08/19 04:55:23;;;;;;;19.92;14.80;;;20.80;99.90;;;;;;5092255;28;20043;-67
2023/08/19 04:57:48;;;;;;;19.35;14.68;;;20.80;99.90;;;;;;5092686;28;20469;-67
2023/08/19 05:00:14;;;;;;;18.90;13.35;;;20.90;99.90;;;;;;5091210;28;20424;-67
2023/08/19 05:02:40;;;;;;;19.73;13.88;;;20.90;99.90;;;;;;5092417;28;20062;-67
2023/08/19 05:05:06;;;;;;;18.02;14.13;;;21.00;99.90;;;;;;5091515;28;20040;-67
2023/08/19 05:07:31;;;;;;;18.05;13.52;;;21.00;99.90;;;;;;5092531;28;20398;-67
2023/08/19 05:09:57;;;;;;;19.08;12.35;;;21.00;99.90;;;;;;5090899;28;20070;-67
2023/08/19 05:12:23;;;;;;;15.63;12.93;;;21.00;99.90;;;;;;5090771;28;20027;-67
2023/08/19 05:14:49;;;;;;;16.48;11.82;;;21.10;99.90;;;;;;5091885;28;20524;-67
2023/08/19 05:17:15;;;;;;;15.18;12.27;;;21.20;99.90;;;;;;5092011;28;20069;-67
2023/08/19 05:19:40;;;;;;;14.60;11.38;;;21.10;99.90;;;;;;5092152;28;20076;-67
2023/08/19 05:22:06;;;;;;;18.63;13.30;;;21.10;99.90;;;;;;5092207;28;20044;-67
2023/08/19 05:24:32;;;;;;;18.05;12.45;;;21.10;99.90;;;;;;5091623;28;20067;-67
2023/08/19 05:26:59;;;;;;;17.30;12.25;;;21.20;99.90;;;;;;5092227;28;20047;-67
2023/08/19 05:29:24;;;;;;;13.80;12.02;;;21.20;99.90;;;;;;5092265;28;20107;-67
2023/08/19 05:31:50;;;;;;;15.23;12.00;;;21.10;99.90;;;;;;5091842;28;20158;-67
2023/08/19 05:34:16;;;;;;;17.27;12.02;;;21.20;99.90;;;;;;5091817;28;20064;-66
2023/08/19 05:36:41;;;;;;;18.52;12.07;;;21.10;99.90;;;;;;5092014;28;20036;-67
2023/08/19 05:39:07;;;;;;;14.85;12.35;;;21.10;99.90;;;;;;5091240;28;20127;-67
2023/08/19 05:41:33;;;;;;;17.33;12.05;;;21.20;99.90;;;;;;5091831;28;20036;-67
2023/08/19 05:43:59;;;;;;;19.02;11.40;;;21.20;99.90;;;;;;5091656;28;20111;-67
2023/08/19 05:46:25;;;;;;;16.88;12.15;;;21.20;99.90;;;;;;5091938;28;20044;-67
2023/08/19 05:48:50;;;;;;;16.23;12.00;;;21.20;99.90;;;;;;5091797;28;20034;-66
2023/08/19 05:51:16;;;;;;;14.82;11.70;;;21.20;99.90;;;;;;5091936;28;20047;-67
2023/08/19 05:53:42;;;;;;;15.32;12.23;;;21.20;99.90;;;;;;5091417;28;20405;-67
2023/08/19 05:56:07;;;;;;;15.50;11.50;;;21.20;99.90;;;;;;5091788;28;20592;-67
2023/08/19 05:58:33;;;;;;;15.57;10.75;;;21.20;99.90;;;;;;5091951;28;20042;-67
2023/08/19 06:01:00;;;;;;;17.23;10.98;;;21.30;99.90;;;;;;5091812;28;20123;-67
2023/08/19 06:03:26;;;;;;;14.48;11.52;;;21.30;99.90;;;;;;5089809;28;20041;-67
2023/08/19 06:05:51;;;;;;;13.48;10.82;;;21.30;99.90;;;;;;5091202;28;20040;-67
2023/08/19 06:08:17;;;;;;;15.70;10.77;;;21.30;99.90;;;;;;5091582;28;20082;-67
2023/08/19 06:10:44;;;;;;;14.35;10.55;;;21.40;99.90;;;;;;5091805;28;20043;-67
2023/08/19 06:13:13;;;;;;;14.57;10.38;;;21.40;99.90;;;;;;5091598;28;20066;-67
2023/08/19 06:15:40;;;;;;;15.23;10.85;;;21.40;99.90;;;;;;5091512;28;20047;-67
2023/08/19 06:18:05;;;;;;;13.77;10.35;;;21.40;99.90;;;;;;5091747;28;20528;-67
2023/08/19 06:20:31;;;;;;;15.45;10.30;;;21.40;99.90;;;;;;5090275;28;20047;-67
2023/08/19 06:22:57;;;;;;;14.50;10.77;;;21.40;99.90;;;;;;5090059;28;20043;-67
2023/08/19 06:25:23;;;;;;;13.90;10.45;;;21.40;99.90;;;;;;5091170;28;20044;-67
2023/08/19 06:27:49;;;;;;;17.08;10.30;;;21.50;99.90;;;;;;5091641;28;20036;-67
2023/08/19 06:30:14;;;;;;;13.10;10.07;;;21.50;99.90;;;;;;5091561;28;20047;-67
2023/08/19 06:32:40;;;;;;;13.93;10.48;;;21.50;99.90;;;;;;5091569;28;20107;-67
2023/08/19 06:35:06;;;;;;;11.45;9.23;;;21.50;99.90;;;;;;5091198;28;20040;-67
2023/08/19 06:37:39;;;;;;;12.60;9.70;;;21.50;99.90;;;;;;5103081;22;20047;-68
2023/08/19 06:40:07;;;;;;;13.50;9.70;;;21.60;99.90;;;;;;5021563;28;20038;-68
2023/08/19 06:42:35;;;;;;;13.40;9.30;;;21.60;99.90;;;;;;5030753;28;20034;-66
2023/08/19 06:45:01;;;;;;;10.93;8.93;;;21.60;99.90;;;;;;5032903;28;20045;-66
2023/08/19 06:47:31;;;;;;;16.83;9.30;;;21.60;99.90;;;;;;5034700;28;20041;-66
2023/08/19 06:49:57;;;;;;;13.68;9.80;;;21.60;99.90;;;;;;5034694;28;20395;-66
2023/08/19 06:52:24;;;;;;;14.80;10.48;;;21.70;99.90;;;;;;5034444;28;20045;-66
2023/08/19 06:54:49;;;;;;;12.85;9.68;;;21.70;99.90;;;;;;5034551;28;20041;-65
2023/08/19 06:57:27;;;;;;;16.70;9.43;;;21.70;99.90;;;;;;5034378;28;20052;-65
2023/08/19 06:59:58;;;;;;;10.90;9.25;;;21.70;99.90;;;;;;5034540;28;20431;-66
2023/08/19 07:02:25;;;;;;;;;;;21.80;99.90;;;;;;5034826;28;20076;-66
2023/08/19 07:04:51;;;;;;;11.85;8.60;;;21.80;99.90;;;;;;5034297;28;19921;-65
2023/08/19 07:07:21;;;;;;;11.52;8.75;;;21.80;99.90;;;;;;5033401;28;20037;-66
2023/08/19 07:09:47;;;;;;;11.53;8.83;;;21.80;99.90;;;;;;5034532;28;20041;-67
2023/08/19 07:12:13;;;;;;;11.82;8.73;;;21.90;99.90;;;;;;5034225;28;20075;-67
2023/08/19 07:14:40;;;;;;;10.13;8.60;;;21.90;99.90;;;;;;5033924;28;20048;-67
2023/08/19 07:17:07;;;;;;;10.32;8.50;;;21.90;99.90;;;;;;5016406;28;20116;-67
2023/08/19 07:19:40;;;;;;;11.18;8.38;;;21.90;99.90;;;;;;5034338;28;20055;-67
2023/08/19 07:22:06;;;;;;;8.88;7.90;;;21.90;99.90;;;;;;5034297;28;20136;-67
2023/08/19 07:24:32;;;;;;;12.15;8.98;;;22.00;99.90;;;;;;5033770;28;20128;-67
2023/08/19 07:27:05;;;;;;;10.15;8.82;;;21.90;99.90;;;;;;5016201;28;20073;-67
2023/08/19 07:29:31;;;;;;;11.18;7.95;;;22.00;99.90;;;;;;5016382;28;20131;-67
2023/08/19 07:31:57;;;;;;;9.80;8.60;;;22.00;99.90;;;;;;5034172;28;20033;-66
2023/08/19 07:34:22;;;;;;;11.10;8.43;;;22.00;99.90;;;;;;5032349;28;20052;-67
2023/08/19 07:36:49;;;;;;;10.43;8.02;;;22.00;99.90;;;;;;5016148;28;20037;-66
2023/08/19 07:39:14;;;;;;;9.90;8.23;;;22.00;99.90;;;;;;5033736;28;20041;-66
2023/08/19 07:41:40;;;;;;;11.13;7.90;;;22.00;99.90;;;;;;5033870;28;20052;-66
2023/08/19 07:44:06;;;;;;;10.40;8.20;;;22.10;99.90;;;;;;5033107;28;20045;-67
2023/08/19 07:46:32;;;;;;;11.18;8.68;;;22.10;99.90;;;;;;5015893;28;20037;-66
2023/08/19 07:48:58;;;;;;;11.05;8.55;;;22.20;99.90;;;;;;5033701;28;20123;-67
2023/08/19 07:51:24;;;;;;;10.52;8.32;;;22.20;99.90;;;;;;5033153;28;20120;-66
2023/08/19 07:53:50;;;;;;;10.98;8.75;;;22.30;99.90;;;;;;5015767;28;20103;-67
2023/08/19 07:56:16;;;;;;;11.00;7.72;;;22.40;99.90;;;;;;5033294;28;20513;-67
2023/08/19 07:58:42;;;;;;;10.00;7.18;;;22.50;99.90;;;;;;5015673;28;20053;-66
2023/08/19 08:01:10;;;;;;;11.57;7.40;;;22.50;99.90;;;;;;5015924;28;20056;-66
2023/08/19 08:03:38;;;;;;;10.80;7.63;;;22.60;99.90;;;;;;5033139;28;20043;-66
2023/08/19 08:06:03;;;;;;;11.05;7.75;;;22.70;99.90;;;;;;5015552;28;20124;-67
2023/08/19 08:08:29;;;;;;;10.50;7.40;;;22.80;99.90;;;;;;5032815;28;20117;-66
2023/08/19 08:10:55;;;;;;;13.10;7.20;;;22.80;99.90;;;;;;5033239;28;20059;-67
2023/08/19 08:13:21;;;;;;;9.73;7.30;;;22.90;99.90;;;;;;5032583;28;20398;-67
2023/08/19 08:15:47;;;;;;;12.85;7.72;;;23.00;99.90;;;;;;5033198;28;20091;-67
2023/08/19 08:18:13;;;;;;;9.75;7.68;;;23.10;99.90;;;;;;5033183;28;20392;-66
2023/08/19 08:20:39;;;;;;;9.95;7.32;;;23.20;99.90;;;;;;5033226;28;20117;-67
2023/08/19 08:23:05;;;;;;;10.50;7.70;;;23.20;99.90;;;;;;5015252;28;20041;-67
2023/08/19 08:25:31;;;;;;;8.35;6.32;;;23.30;99.90;;;;;;5014592;28;20049;-67
2023/08/19 08:27:56;;;;;;;10.35;6.75;;;23.40;99.90;;;;;;5032323;28;20045;-67
2023/08/19 08:30:22;;;;;;;9.77;6.90;;;23.40;99.90;;;;;;5015411;28;20052;-67
2023/08/19 08:32:48;;;;;;;12.50;6.50;;;23.50;99.90;;;;;;5014824;28;20124;-67
2023/08/19 08:35:13;;;;;;;8.35;6.32;;;23.60;99.90;;;;;;5032580;28;20037;-67
2023/08/19 08:37:39;;;;;;;9.52;6.82;;;23.60;99.90;;;;;;5032211;28;20049;-66
2023/08/19 08:40:05;;;;;;;7.82;6.63;;;23.70;99.90;;;;;;5032785;28;20091;-67
2023/08/19 08:42:31;;;;;;;10.70;6.68;;;23.80;99.90;;;;;;5032403;28;20076;-67
2023/08/19 08:44:58;;;;;;;9.82;7.07;;;23.80;99.90;;;;;;5032437;28;20508;-67
2023/08/19 08:47:25;;;;;;;12.60;7.30;;;24.00;99.90;;;;;;5015092;28;20042;-66
2023/08/19 08:49:53;;;;;;;11.65;6.97;;;24.00;99.90;;;;;;5032576;28;20033;-67
2023/08/19 08:52:20;;;;;;;10.70;7.10;;;24.20;99.90;;;;;;5032498;28;20685;-67
2023/08/19 08:54:47;;;;;;;9.18;6.43;;;24.30;99.90;;;;;;5032044;28;20048;-67
2023/08/19 08:57:16;;;;;;;11.32;6.65;;;24.40;99.90;;;;;;5031556;28;20049;-67
2023/08/19 08:59:42;;;;;;;9.50;7.10;;;24.40;99.90;;;;;;5014653;28;20411;-67
2023/08/19 09:02:10;;;;;;;8.98;7.43;;;24.50;99.90;;;;;;5014823;28;20049;-67
2023/08/19 09:04:40;;;;;;;7.80;6.25;;;24.60;99.90;;;;;;5031938;28;20171;-67
2023/08/19 09:07:12;;;;;;;9.82;7.00;;;24.60;99.90;;;;;;5013531;28;20052;-67
2023/08/19 09:09:41;;;;;;;9.10;7.18;;;24.70;99.90;;;;;;5031780;28;20117;-67
2023/08/19 09:12:11;;;;;;;10.52;7.43;;;24.70;99.90;;;;;;5032201;28;20041;-67
2023/08/19 09:14:45;;;;;;;10.90;6.70;;;24.70;99.90;;;;;;5031983;28;20037;-67
2023/08/19 09:17:12;;;;;;;9.18;6.85;;;24.80;99.90;;;;;;5032317;28;20041;-67
2023/08/19 09:19:38;;;;;;;8.23;6.72;;;24.80;99.90;;;;;;5032019;28;20479;-67
2023/08/19 09:22:16;;;;;;;7.38;6.47;;;24.80;99.90;;;;;;5031810;28;20045;-67
2023/08/19 09:24:42;;;;;;;7.18;6.20;;;24.80;99.90;;;;;;5031710;28;20057;-67
2023/08/19 09:27:07;;;;;;;9.32;6.45;;;24.80;99.90;;;;;;5014279;28;20037;-67
2023/08/19 09:29:34;;;;;;;7.95;6.45;;;24.90;99.90;;;;;;5031873;28;20391;-67
2023/08/19 09:32:00;;;;;;;8.40;6.63;;;24.90;99.90;;;;;;5013874;28;20033;-67
2023/08/19 09:34:26;;;;;;;8.93;6.22;;;24.90;99.90;;;;;;5031201;28;20395;-67
2023/08/19 09:36:56;;;;;;;8.65;5.97;;;25.00;99.90;;;;;;5014160;28;20121;-67
2023/08/19 09:39:25;;;;;;;9.52;6.47;;;25.00;99.90;;;;;;5031293;28;20402;-67
2023/08/19 09:41:57;;;;;;;8.38;6.32;;;25.00;99.90;;;;;;5031867;28;20107;-67
2023/08/19 09:44:22;;;;;;;6.55;5.53;;;25.10;99.90;;;;;;5030899;28;20041;-67
2023/08/19 09:46:48;;;;;;;10.82;6.15;;;25.20;99.90;;;;;;5031809;28;20514;-67
2023/08/19 09:49:20;;;;;;;12.20;6.40;;;25.30;99.90;;;;;;5030885;28;20083;-67
2023/08/19 09:51:54;;;;;;;11.07;5.63;;;25.30;99.90;;;;;;5014312;28;20033;-67
2023/08/19 09:54:21;;;;;;;9.15;5.78;;;25.40;99.90;;;;;;5031460;28;20033;-67
2023/08/19 09:56:57;;;;;;;10.27;6.18;;;25.50;99.90;;;;;;5031567;28;20546;-67
2023/08/19 09:59:26;;;;;;;7.35;5.90;;;25.60;99.90;;;;;;5013536;28;20053;-67
2023/08/19 10:01:53;;;;;;;10.73;6.10;;;25.70;99.90;;;;;;5031886;28;20033;-67
2023/08/19 10:04:20;;;;;;;9.35;6.28;;;25.90;99.90;;;;;;5030945;28;20052;-67
2023/08/19 10:06:48;;;;;;;7.85;5.60;;;26.00;99.90;;;;;;5031584;28;20499;-67
2023/08/19 10:09:17;;;;;;;7.28;5.65;;;26.00;99.90;;;;;;5030979;28;20491;-67
2023/08/19 10:11:43;;;;;;;8.13;5.93;;;26.10;99.90;;;;;;5031183;28;20091;-67
2023/08/19 10:14:11;;;;;;;10.57;6.00;;;26.30;99.90;;;;;;5030158;28;20033;-67
2023/08/19 10:16:45;;;;;;;7.25;5.95;;;26.40;99.90;;;;;;5031747;28;20155;-67
2023/08/19 10:19:15;;;;;;;8.65;5.68;;;26.60;99.90;;;;;;5032241;28;20487;-67
2023/08/19 10:21:42;;;;;;;10.57;6.20;;;26.60;99.90;;;;;;5035016;28;20037;-67
2023/08/19 10:24:08;;;;;;;7.90;6.30;;;26.70;99.90;;;;;;5034485;28;20073;-67
2023/08/19 10:26:34;;;;;;;14.30;6.38;;;26.80;99.90;;;;;;5035159;28;20049;-67
2023/08/19 10:29:07;;;;;;;10.70;6.57;;;26.90;99.90;;;;;;5034839;28;20041;-67
2023/08/19 10:31:33;;;;;;;6.93;5.80;;;26.90;99.90;;;;;;5035554;28;20060;-67
2023/08/19 10:34:08;;;;;;;10.68;6.75;;;26.90;99.90;;;;;;5016660;28;20037;-67
2023/08/19 10:36:33;;;;;;;9.68;5.88;;;26.90;99.90;;;;;;5017436;28;20033;-67
2023/08/19 10:39:00;;;;;;;8.82;6.05;;;26.80;99.90;;;;;;5033892;28;20163;-67
2023/08/19 10:41:35;;;;;;;11.73;6.90;;;26.80;99.90;;;;;;5017256;28;20041;-67
2023/08/19 10:44:08;;;;;;;12.50;7.00;;;26.70;99.90;;;;;;5034734;28;20029;-67
2023/08/19 10:46:38;;;;;;;8.15;7.15;;;26.50;99.90;;;;;;5016620;28;20041;-67
2023/08/19 10:49:06;;;;;;;10.07;7.07;;;26.40;99.90;;;;;;5034423;28;20037;-67
2023/08/19 10:51:46;;;;;;;9.38;7.38;;;26.30;99.90;;;;;;5034711;28;20044;-67
2023/08/19 10:54:11;;;;;;;10.48;7.38;;;26.10;99.90;;;;;;5016645;28;20041;-66
2023/08/19 10:56:43;;;;;;;11.20;8.40;;;26.00;99.90;;;;;;5034752;28;20116;-66
2023/08/19 10:59:10;;;;;;;11.75;7.53;;;25.90;99.90;;;;;;5034495;28;20555;-67
2023/08/19 11:01:35;;;;;;;14.57;8.40;;;25.70;99.90;;;;;;5034616;28;20491;-66
2023/08/19 11:04:01;;;;;;;11.98;9.02;;;25.60;99.90;;;;;;5034009;28;20037;-66
2023/08/19 11:06:30;;;;;;;13.60;9.10;;;25.50;99.90;;;;;;5016625;28;20041;-67
2023/08/19 11:09:02;;;;;;;14.15;10.38;;;25.30;99.90;;;;;;5034329;28;20522;-67
2023/08/19 11:11:30;;;;;;;13.68;10.18;;;25.20;99.90;;;;;;5016797;28;20042;-66
2023/08/19 11:13:56;;;;;;;13.45;9.27;;;25.10;99.90;;;;;;5034087;28;20446;-67
2023/08/19 11:16:28;;;;;;;13.38;9.70;;;25.00;99.90;;;;;;5016473;28;20052;-67
2023/08/19 11:18:56;;;;;;;15.13;10.68;;;25.00;99.90;;;;;;5033908;28;20076;-67
2023/08/19 11:21:24;;;;;;;13.82;9.80;;;25.00;99.90;;;;;;5034383;28;20116;-66
2023/08/19 11:23:51;;;;;;;14.77;9.80;;;25.00;99.90;;;;;;5034039;28;20071;-67
2023/08/19 11:26:17;;;;;;;14.73;10.27;;;25.10;99.90;;;;;;5016250;28;20053;-67
2023/08/19 11:28:42;;;;;;;14.93;10.82;;;25.20;99.90;;;;;;5016238;28;20495;-67
2023/08/19 11:31:08;;;;;;;13.80;9.43;;;25.30;99.90;;;;;;5033632;28;20048;-67
2023/08/19 11:33:34;;;;;;;14.65;10.25;;;25.30;99.90;;;;;;5033986;28;20037;-67
2023/08/19 11:35:59;;;;;;;13.95;10.07;;;25.40;99.90;;;;;;5016162;28;20048;-67
2023/08/19 11:38:25;;;;;;;14.73;9.90;;;25.50;99.90;;;;;;5033803;28;20065;-67
2023/08/19 11:40:52;;;;;;;16.85;10.30;;;25.60;99.90;;;;;;5033792;28;20131;-67
2023/08/19 11:43:22;;;;;;;13.40;10.82;;;25.70;99.90;;;;;;5033871;28;20171;-67
2023/08/19 11:45:48;;;;;;;14.23;10.40;;;25.80;99.90;;;;;;5032732;28;20041;-67
2023/08/19 11:48:14;;;;;;;14.45;10.52;;;25.90;99.90;;;;;;5033851;28;20395;-67
2023/08/19 11:50:47;;;;;;;17.65;10.75;;;25.90;99.90;;;;;;5034036;28;20038;-67
2023/08/19 11:53:28;;;;;;;18.60;10.65;;;26.00;99.90;;;;;;5033065;28;20129;-67
2023/08/19 11:56:00;;;;;;;13.18;10.00;;;26.00;99.90;;;;;;5033123;28;20052;-67
2023/08/19 11:58:39;;;;;;;19.75;10.68;;;26.10;99.90;;;;;;5033658;28;20041;-67
2023/08/19 12:01:05;;;;;;;15.65;10.88;;;26.30;99.90;;;;;;5015770;28;20048;-67
2023/08/19 12:03:30;;;;;;;15.75;10.85;;;26.50;99.90;;;;;;5033402;28;20099;-67
2023/08/19 12:05:57;;;;;;;15.13;11.75;;;26.80;99.90;;;;;;5015258;28;20037;-67
2023/08/19 12:08:32;;;;;;;19.23;13.48;;;27.00;99.90;;;;;;5033360;28;20061;-66
2023/08/19 12:10:59;;;;;;;16.27;11.30;;;27.10;99.90;;;;;;5032405;28;20051;-66
2023/08/19 12:13:27;;;;;;;17.95;12.98;;;27.10;99.90;;;;;;5033145;28;20042;-67
2023/08/19 12:15:54;;;;;;;16.75;13.15;;;27.10;99.90;;;;;;5015170;28;20491;-67
2023/08/19 12:18:20;;;;;;;18.73;13.27;;;27.10;99.90;;;;;;5033205;28;20053;-67
2023/08/19 12:20:46;;;;;;;16.52;12.48;;;27.00;99.90;;;;;;5032391;28;20106;-67
2023/08/19 12:23:12;;;;;;;18.58;14.07;;;27.00;99.90;;;;;;5015311;28;20506;-67
2023/08/19 12:26:07;;;;;;;18.77;14.52;;;27.00;99.90;;;;;;5014585;28;20041;-66
2023/08/19 12:28:33;;;;;;;21.92;14.07;;;27.00;99.90;;;;;;5019932;28;20495;-66
2023/08/19 12:30:59;;;;;;;20.58;15.60;;;27.00;99.90;;;;;;5032654;28;20036;-66
2023/08/19 12:33:25;;;;;;;19.00;15.82;;;26.90;99.90;;;;;;5032847;28;20030;-66